createdAt,value
2023-03-26T00:02:07.667Z,0.80
2023-03-26T00:04:35.698Z,0.60
2023-03-26T00:07:03.742Z,1.07
2023-03-26T00:09:31.729Z,0.90
2023-03-26T00:11:59.712Z,0.97
2023-03-26T00:14:30.201Z,0.73
2023-03-26T00:16:58.454Z,0.63
2023-03-26T00:19:28.210Z,1.00
2023-03-26T00:21:57.746Z,0.80
2023-03-26T00:24:29.917Z,0.70
2023-03-26T00:26:59.762Z,0.80
2023-03-26T00:29:28.751Z,0.83
2023-03-26T00:31:57.001Z,0.87
2023-03-26T00:34:25.083Z,1.00
2023-03-26T00:36:55.061Z,0.67
2023-03-26T00:39:24.150Z,0.70
2023-03-26T00:41:54.284Z,1.07
2023-03-26T00:44:22.713Z,0.60
2023-03-26T00:46:50.786Z,0.50
2023-03-26T00:49:18.750Z,0.83
2023-03-26T00:51:46.722Z,0.90
2023-03-26T00:54:16.031Z,0.70
2023-03-26T00:56:44.060Z,0.60
2023-03-26T00:59:12.163Z,0.70
2023-03-26T01:01:40.276Z,0.90
2023-03-26T01:04:27.649Z,1.00
2023-03-26T01:06:56.661Z,0.70
2023-03-26T01:09:32.909Z,1.00
2023-03-26T01:12:01.955Z,0.90
2023-03-26T01:14:30.509Z,0.93
2023-03-26T01:16:59.824Z,1.20
2023-03-26T01:19:33.827Z,0.80
2023-03-26T01:22:01.854Z,0.50
2023-03-26T01:24:31.195Z,0.90
2023-03-26T01:27:10.925Z,0.70
2023-03-26T01:29:45.379Z,1.10
2023-03-26T01:32:30.835Z,0.80
2023-03-26T01:35:15.378Z,0.60
2023-03-26T01:37:58.469Z,0.60
2023-03-26T01:40:31.727Z,1.03
2023-03-26T01:43:08.181Z,0.80
2023-03-26T01:45:40.685Z,0.97
2023-03-26T01:48:08.740Z,1.03
2023-03-26T01:50:36.718Z,0.80
2023-03-26T01:53:05.054Z,0.87
2023-03-26T01:55:43.498Z,0.63
2023-03-26T01:58:22.023Z,0.90
2023-03-26T02:00:56.705Z,0.70
2023-03-26T02:03:31.102Z,0.70
2023-03-26T02:06:06.007Z,0.60
2023-03-26T02:08:36.753Z,0.80
2023-03-26T02:11:13.130Z,0.80
2023-03-26T02:13:43.039Z,0.70
2023-03-26T02:16:14.188Z,0.50
2023-03-26T02:18:42.634Z,1.00
2023-03-26T02:21:13.173Z,0.50
2023-03-26T02:23:41.974Z,0.63
2023-03-26T02:26:12.356Z,0.90
2023-03-26T02:28:40.638Z,1.30
2023-03-26T02:31:11.169Z,0.80
2023-03-26T02:33:39.513Z,0.73
2023-03-26T02:36:08.732Z,0.60
2023-03-26T02:38:37.073Z,1.30
2023-03-26T02:41:06.905Z,1.00
2023-03-26T02:43:36.202Z,0.83
2023-03-26T02:46:04.342Z,0.70
2023-03-26T02:48:34.605Z,0.60
2023-03-26T02:51:02.579Z,0.90
2023-03-26T02:53:30.597Z,0.50
2023-03-26T02:55:59.086Z,0.90
2023-03-26T02:58:27.337Z,0.77
2023-03-26T03:00:56.669Z,0.90
2023-03-26T03:03:25.473Z,0.70
2023-03-26T03:05:53.950Z,0.77
2023-03-26T03:08:23.646Z,0.97
2023-03-26T03:10:57.618Z,1.10
2023-03-26T03:13:25.573Z,0.90
2023-03-26T03:15:53.742Z,0.80
2023-03-26T03:18:23.585Z,0.80
2023-03-26T03:20:51.796Z,0.87
2023-03-26T03:23:19.704Z,0.70
2023-03-26T03:25:49.031Z,0.60
2023-03-26T03:28:18.230Z,0.80
2023-03-26T03:30:47.068Z,0.50
2023-03-26T03:33:15.395Z,0.70
2023-03-26T03:35:45.960Z,0.67
2023-03-26T03:38:14.020Z,1.10
2023-03-26T03:40:41.925Z,0.67
2023-03-26T03:43:10.001Z,0.70
2023-03-26T03:45:37.954Z,0.80
2023-03-26T03:48:06.341Z,0.90
2023-03-26T03:50:35.818Z,1.17
2023-03-26T03:53:06.433Z,1.17
2023-03-26T03:55:34.360Z,0.80
2023-03-26T03:58:03.442Z,0.83
2023-03-26T04:00:32.312Z,1.00
2023-03-26T04:03:06.062Z,1.00
2023-03-26T04:05:34.504Z,0.80
2023-03-26T04:08:02.549Z,0.80
2023-03-26T04:10:31.856Z,0.90
2023-03-26T04:12:59.856Z,0.90
2023-03-26T04:15:27.983Z,0.80
2023-03-26T04:17:55.931Z,0.93
2023-03-26T04:20:23.947Z,0.80
2023-03-26T04:22:52.734Z,1.10
2023-03-26T04:25:21.334Z,0.80
2023-03-26T04:27:50.631Z,0.80
2023-03-26T04:30:20.986Z,1.20
2023-03-26T04:32:49.013Z,0.67
2023-03-26T04:35:19.449Z,0.70
2023-03-26T04:37:47.806Z,1.20
2023-03-26T04:40:18.340Z,1.10
2023-03-26T04:42:46.577Z,0.60
2023-03-26T04:45:17.744Z,0.80
2023-03-26T04:47:46.570Z,0.70
2023-03-26T04:50:15.492Z,0.60
2023-03-26T04:52:45.143Z,0.83
2023-03-26T04:55:24.605Z,0.83
2023-03-26T04:57:57.628Z,0.90
2023-03-26T05:00:28.417Z,1.00
2023-03-26T05:02:57.829Z,1.00
2023-03-26T05:05:26.651Z,1.00
2023-03-26T05:07:54.753Z,0.87
2023-03-26T05:10:23.632Z,0.70
2023-03-26T05:12:51.593Z,1.07
2023-03-26T05:15:19.927Z,1.00
2023-03-26T05:17:49.221Z,0.80
2023-03-26T05:20:21.306Z,1.00
2023-03-26T05:22:49.910Z,1.00
2023-03-26T05:25:18.409Z,0.90
2023-03-26T05:27:47.036Z,0.70
2023-03-26T05:30:17.738Z,0.70
2023-03-26T05:32:47.267Z,0.70
2023-03-26T05:35:17.835Z,0.93
2023-03-26T05:37:46.420Z,1.10
2023-03-26T05:40:17.196Z,0.70
2023-03-26T05:42:46.019Z,0.93
2023-03-26T05:45:16.102Z,0.77
2023-03-26T05:47:44.409Z,1.10
2023-03-26T05:50:12.925Z,0.70
2023-03-26T05:52:42.438Z,0.60
2023-03-26T05:55:11.519Z,1.37
2023-03-26T05:57:39.493Z,0.90
2023-03-26T06:00:11.523Z,0.90
2023-03-26T06:02:39.512Z,0.97
2023-03-26T06:05:09.908Z,0.90
2023-03-26T06:07:37.834Z,0.90
2023-03-26T06:10:09.394Z,0.90
2023-03-26T06:12:37.794Z,0.77
2023-03-26T06:15:08.625Z,0.87
2023-03-26T06:17:36.587Z,0.93
2023-03-26T06:20:09.288Z,0.90
2023-03-26T06:22:37.594Z,1.17
2023-03-26T06:25:08.302Z,0.70
2023-03-26T06:27:36.220Z,1.00
2023-03-26T06:30:04.530Z,1.20
2023-03-26T06:32:32.493Z,1.20
2023-03-26T06:35:00.561Z,0.67
2023-03-26T06:37:28.468Z,0.73
2023-03-26T06:39:56.356Z,1.20
2023-03-26T06:43:06.957Z,1.00
2023-03-26T06:45:13.587Z,0.80
2023-03-26T06:47:41.533Z,0.87
2023-03-26T06:50:11.493Z,0.90
2023-03-26T06:52:39.445Z,1.00
2023-03-26T06:55:10.277Z,0.80
2023-03-26T06:57:39.825Z,1.13
2023-03-26T07:00:09.957Z,0.93
2023-03-26T07:02:38.045Z,1.10
2023-03-26T07:05:06.360Z,1.10
2023-03-26T07:07:34.266Z,0.87
2023-03-26T07:10:02.333Z,1.00
2023-03-26T07:12:30.265Z,0.97
2023-03-26T07:15:00.650Z,1.10
2023-03-26T07:17:28.664Z,0.90
2023-03-26T07:19:58.111Z,1.27
2023-03-26T07:22:26.653Z,1.40
2023-03-26T07:24:55.428Z,1.00
2023-03-26T07:27:38.536Z,1.30
2023-03-26T07:30:13.399Z,1.27
2023-03-26T07:32:48.729Z,1.17
2023-03-26T07:35:22.866Z,0.90
2023-03-26T07:38:04.395Z,1.00
2023-03-26T07:40:46.720Z,1.67
2023-03-26T07:43:26.616Z,1.03
2023-03-26T07:45:57.575Z,1.40
2023-03-26T07:48:27.258Z,1.30
2023-03-26T07:50:56.597Z,1.37
2023-03-26T07:53:25.435Z,1.27
2023-03-26T07:55:59.066Z,1.40
2023-03-26T07:58:56.773Z,1.47
2023-03-26T08:01:40.819Z,1.30
2023-03-26T08:04:33.350Z,1.10
2023-03-26T08:07:06.701Z,1.53
2023-03-26T08:09:41.490Z,1.50
2023-03-26T08:12:18.953Z,1.30
2023-03-26T08:14:56.305Z,1.60
2023-03-26T08:17:32.700Z,1.40
2023-03-26T08:20:11.931Z,1.70
2023-03-26T08:22:43.253Z,1.60
2023-03-26T08:25:25.425Z,1.10
2023-03-26T08:28:05.195Z,1.30
2023-03-26T08:30:33.273Z,1.57
2023-03-26T08:33:12.932Z,1.67
2023-03-26T08:35:42.418Z,1.30
2023-03-26T08:38:10.904Z,1.10
2023-03-26T08:41:28.758Z,1.40
2023-03-26T08:44:41.422Z,1.60
2023-03-26T08:47:38.053Z,1.50
2023-03-26T08:50:32.892Z,1.20
2023-03-26T08:53:45.395Z,1.53
2023-03-26T08:56:20.518Z,1.47
2023-03-26T08:59:26.745Z,1.40
2023-03-26T09:02:27.217Z,1.90
2023-03-26T09:05:29.819Z,1.40
2023-03-26T09:08:33.995Z,1.50
2023-03-26T09:11:31.629Z,1.57
2023-03-26T09:14:33.191Z,1.43
2023-03-26T09:17:27.790Z,1.53
2023-03-26T09:20:22.885Z,1.50
2023-03-26T09:23:26.525Z,1.60
2023-03-26T09:26:17.084Z,1.70
2023-03-26T09:29:21.498Z,1.53
2023-03-26T09:32:29.196Z,1.60
2023-03-26T09:35:13.661Z,1.60
2023-03-26T09:37:58.353Z,1.27
2023-03-26T09:40:36.592Z,1.70
2023-03-26T09:43:30.334Z,1.30
2023-03-26T09:46:12.507Z,1.20
2023-03-26T09:49:02.842Z,1.60
2023-03-26T09:51:51.183Z,1.70
2023-03-26T09:54:52.916Z,1.60
2023-03-26T09:57:38.675Z,1.43
2023-03-26T10:00:24.295Z,1.63
2023-03-26T10:03:19.403Z,1.50
2023-03-26T10:06:14.822Z,1.60
2023-03-26T10:09:02.840Z,1.60
2023-03-26T10:11:43.992Z,1.30
2023-03-26T10:14:23.074Z,1.67
2023-03-26T10:17:05.907Z,1.20
2023-03-26T10:19:49.109Z,1.80
2023-03-26T10:22:33.327Z,1.50
2023-03-26T10:25:23.280Z,1.40
2023-03-26T10:28:03.247Z,1.30
2023-03-26T10:31:03.455Z,1.70
2023-03-26T10:33:43.063Z,1.37
2023-03-26T10:36:29.800Z,1.00
2023-03-26T10:39:35.957Z,1.30
2023-03-26T10:42:23.873Z,1.13
2023-03-26T10:45:25.798Z,1.60
2023-03-26T10:48:16.524Z,1.00
2023-03-26T10:50:58.534Z,1.13
2023-03-26T10:53:37.173Z,1.40
2023-03-26T10:56:14.579Z,1.07
2023-03-26T10:58:49.226Z,1.10
2023-03-26T11:01:28.604Z,1.10
2023-03-26T11:03:58.605Z,1.40
2023-03-26T11:06:43.582Z,1.30
2023-03-26T11:09:22.904Z,1.07
2023-03-26T11:12:00.550Z,1.00
2023-03-26T11:14:35.416Z,1.20
2023-03-26T11:17:40.034Z,1.47
2023-03-26T11:20:09.668Z,0.87
2023-03-26T11:22:51.143Z,1.30
2023-03-26T11:25:41.273Z,1.00
2023-03-26T11:28:20.026Z,1.40
2023-03-26T11:30:53.030Z,0.80
2023-03-26T11:33:25.418Z,1.10
2023-03-26T11:35:59.320Z,1.00
2023-03-26T11:38:37.185Z,1.13
2023-03-26T11:41:12.058Z,1.10
2023-03-26T11:43:40.075Z,1.17
2023-03-26T11:46:12.801Z,1.10
2023-03-26T11:48:44.389Z,0.80
2023-03-26T11:51:16.390Z,0.93
2023-03-26T11:53:46.805Z,0.93
2023-03-26T11:56:19.268Z,0.90
2023-03-26T11:58:52.960Z,0.67
2023-03-26T12:01:30.100Z,0.90
2023-03-26T12:04:03.685Z,1.03
2023-03-26T12:06:32.946Z,0.73
2023-03-26T12:09:02.560Z,0.80
2023-03-26T12:11:35.451Z,0.70
2023-03-26T12:14:05.969Z,0.80
2023-03-26T12:16:36.003Z,0.90
2023-03-26T12:19:07.286Z,0.60
2023-03-26T12:21:46.627Z,0.90
2023-03-26T12:24:30.250Z,0.60
2023-03-26T12:27:01.980Z,0.70
2023-03-26T12:29:34.480Z,0.67
2023-03-26T12:32:08.446Z,0.83
2023-03-26T12:34:39.308Z,0.70
2023-03-26T12:37:15.864Z,0.83
2023-03-26T12:40:09.672Z,0.67
2023-03-26T12:44:46.700Z,0.60
2023-03-26T12:45:24.336Z,1.00
2023-03-26T12:48:00.660Z,0.70
2023-03-26T12:50:41.454Z,0.70
2023-03-26T12:53:25.069Z,0.70
2023-03-26T12:56:01.434Z,0.63
2023-03-26T12:58:44.936Z,0.70
2023-03-26T13:01:23.777Z,0.60
2023-03-26T13:04:14.436Z,0.57
2023-03-26T13:07:01.113Z,0.60
2023-03-26T13:10:07.605Z,0.80
2023-03-26T13:12:46.013Z,0.80
2023-03-26T13:15:21.987Z,0.50
2023-03-26T13:17:59.880Z,0.57
2023-03-26T13:20:35.273Z,0.60
2023-03-26T13:23:09.924Z,0.50
2023-03-26T13:25:45.785Z,0.70
2023-03-26T13:28:33.121Z,0.60
2023-03-26T13:31:08.221Z,0.70
2023-03-26T13:33:51.047Z,0.60
2023-03-26T13:36:24.756Z,0.57
2023-03-26T13:39:13.142Z,0.50
2023-03-26T13:41:58.234Z,0.60
2023-03-26T13:44:34.446Z,0.60
2023-03-26T13:47:08.045Z,0.77
2023-03-26T13:49:42.757Z,0.70
2023-03-26T13:52:15.795Z,0.83
2023-03-26T13:54:50.723Z,0.67
2023-03-26T13:57:24.776Z,0.57
2023-03-26T13:59:58.732Z,0.60
2023-03-26T14:02:34.850Z,0.80
2023-03-26T14:05:08.592Z,0.50
2023-03-26T14:07:43.502Z,0.60
2023-03-26T14:10:14.347Z,0.80
2023-03-26T14:12:51.235Z,0.50
2023-03-26T14:15:25.721Z,0.80
2023-03-26T14:17:59.904Z,0.70
2023-03-26T14:20:57.624Z,0.80
2023-03-26T14:24:02.896Z,0.70
2023-03-26T14:26:46.866Z,0.60
2023-03-26T14:29:30.679Z,0.60
2023-03-26T14:32:10.561Z,0.70
2023-03-26T14:34:51.139Z,0.80
2023-03-26T14:37:43.479Z,0.40
2023-03-26T14:40:31.424Z,0.63
2023-03-26T14:43:15.857Z,0.40
2023-03-26T14:46:04.240Z,0.70
2023-03-26T14:49:03.225Z,0.60
2023-03-26T14:51:46.649Z,0.50
2023-03-26T14:54:18.008Z,0.40
2023-03-26T14:56:54.296Z,0.80
2023-03-26T14:59:47.812Z,0.70
2023-03-26T15:02:59.910Z,0.40
2023-03-26T15:06:12.601Z,0.70
2023-03-26T15:09:19.084Z,0.70
2023-03-26T15:11:54.638Z,0.47
2023-03-26T15:15:14.251Z,0.80
2023-03-26T15:18:25.410Z,0.83
2023-03-26T15:21:36.856Z,0.70
2023-03-26T15:24:31.393Z,0.60
2023-03-26T15:27:33.663Z,0.60
2023-03-26T15:30:30.616Z,0.97
2023-03-26T15:33:35.242Z,0.87
2023-03-26T15:36:44.808Z,0.83
2023-03-26T15:40:01.408Z,0.63
2023-03-26T15:42:38.426Z,0.80
2023-03-26T15:45:32.662Z,0.77
2023-03-26T15:48:35.243Z,0.70
2023-03-26T15:51:22.340Z,0.87
2023-03-26T15:53:56.436Z,0.80
2023-03-26T15:56:40.316Z,0.67
2023-03-26T15:59:19.497Z,0.63
2023-03-26T16:02:02.694Z,0.87
2023-03-26T16:04:50.457Z,0.83
2023-03-26T16:07:42.600Z,0.70
2023-03-26T16:10:29.003Z,0.70
2023-03-26T16:13:24.610Z,0.70
2023-03-26T16:15:57.772Z,0.50
2023-03-26T16:18:35.849Z,0.90
2023-03-26T16:21:48.427Z,0.60
2023-03-26T16:24:26.069Z,0.80
2023-03-26T16:27:29.776Z,0.93
2023-03-26T16:30:23.276Z,0.60
2023-03-26T16:32:56.146Z,0.67
2023-03-26T16:35:41.601Z,0.73
2023-03-26T16:38:16.049Z,0.70
2023-03-26T16:40:59.905Z,0.70
2023-03-26T16:43:55.083Z,0.80
2023-03-26T16:46:44.229Z,0.77
2023-03-26T16:49:24.127Z,0.90
2023-03-26T16:52:03.854Z,0.80
2023-03-26T16:54:42.736Z,0.97
2023-03-26T16:57:22.994Z,0.60
2023-03-26T17:00:24.302Z,0.53
2023-03-26T17:03:03.491Z,0.80
2023-03-26T17:05:37.840Z,0.40
2023-03-26T17:08:16.332Z,0.70
2023-03-26T17:10:57.385Z,0.80
2023-03-26T17:13:33.550Z,0.60
2023-03-26T17:16:10.901Z,0.73
2023-03-26T17:18:51.025Z,0.70
2023-03-26T17:21:22.806Z,0.57
2023-03-26T17:24:03.948Z,0.80
2023-03-26T17:26:44.369Z,1.00
2023-03-26T17:29:24.363Z,0.70
2023-03-26T17:31:58.986Z,0.80
2023-03-26T17:34:50.262Z,0.50
2023-03-26T17:37:44.430Z,0.53
2023-03-26T17:40:46.447Z,0.60
2023-03-26T17:43:36.344Z,0.70
2023-03-26T17:46:11.156Z,0.60
2023-03-26T17:48:45.604Z,0.70
2023-03-26T17:51:31.619Z,0.50
2023-03-26T17:54:00.478Z,0.77
2023-03-26T17:56:32.145Z,0.60
2023-03-26T17:59:12.003Z,0.63
2023-03-26T18:01:43.966Z,0.53
2023-03-26T18:04:18.655Z,0.50
2023-03-26T18:07:06.718Z,0.60
2023-03-26T18:10:16.299Z,0.40
2023-03-26T18:13:25.498Z,0.60
2023-03-26T18:16:13.999Z,0.40
2023-03-26T18:18:48.912Z,0.57
2023-03-26T18:21:24.104Z,0.60
2023-03-26T18:23:53.906Z,0.63
2023-03-26T18:26:40.220Z,0.53
2023-03-26T18:29:18.032Z,0.70
2023-03-26T18:31:48.284Z,0.60
2023-03-26T18:34:18.849Z,0.40
2023-03-26T18:37:14.493Z,0.57
2023-03-26T18:40:00.037Z,0.67
2023-03-26T18:42:30.330Z,0.40
2023-03-26T18:44:59.617Z,0.80
2023-03-26T18:47:38.437Z,0.70
2023-03-26T18:50:38.048Z,0.70
2023-03-26T18:53:08.186Z,0.50
2023-03-26T18:55:39.551Z,0.60
2023-03-26T18:58:21.293Z,0.60
2023-03-26T19:00:52.819Z,0.60
2023-03-26T19:03:24.212Z,0.60
2023-03-26T19:05:54.314Z,0.53
2023-03-26T19:08:24.710Z,0.50
2023-03-26T19:10:55.568Z,0.70
2023-03-26T19:13:24.185Z,0.80
2023-03-26T19:15:54.716Z,0.50
2023-03-26T19:18:25.094Z,0.80
2023-03-26T19:20:55.907Z,0.60
2023-03-26T19:23:28.842Z,0.60
2023-03-26T19:26:00.146Z,0.73
2023-03-26T19:28:31.985Z,0.40
2023-03-26T19:31:08.716Z,0.80
2023-03-26T19:33:39.306Z,0.70
2023-03-26T19:37:22.075Z,0.60
2023-03-26T19:40:40.568Z,0.77
2023-03-26T19:43:14.585Z,0.50
2023-03-26T19:46:00.210Z,0.60
2023-03-26T19:51:18.597Z,0.57
2023-03-26T19:51:25.523Z,0.53
2023-03-26T19:53:55.667Z,0.47
2023-03-26T19:56:23.824Z,0.67
2023-03-26T19:58:53.397Z,0.57
2023-03-26T20:01:23.646Z,0.50
2023-03-26T20:03:53.615Z,0.43
2023-03-26T20:06:34.097Z,0.47
2023-03-26T20:09:06.396Z,0.70
2023-03-26T20:11:37.838Z,0.53
2023-03-26T20:14:14.988Z,0.70
2023-03-26T20:16:44.913Z,0.50
2023-03-26T20:19:14.671Z,0.50
2023-03-26T20:21:43.330Z,0.73
2023-03-26T20:24:14.678Z,0.60
2023-03-26T20:26:42.875Z,0.40
2023-03-26T20:29:12.872Z,0.67
2023-03-26T20:31:41.945Z,0.50
2023-03-26T20:34:17.154Z,0.50
2023-03-26T20:36:45.597Z,0.70
2023-03-26T20:39:14.002Z,0.60
2023-03-26T20:41:45.891Z,0.70
2023-03-26T20:44:17.670Z,0.60
2023-03-26T20:46:46.683Z,0.60
2023-03-26T20:49:15.758Z,0.50
2023-03-26T20:51:45.029Z,0.70
2023-03-26T20:54:21.247Z,0.80
2023-03-26T20:56:49.411Z,0.70
2023-03-26T20:59:21.702Z,0.50
2023-03-26T21:01:50.929Z,0.50
2023-03-26T21:04:19.659Z,0.50
2023-03-26T21:06:47.798Z,0.80
2023-03-26T21:09:18.598Z,0.80
2023-03-26T21:11:53.644Z,0.53
2023-03-26T21:14:26.008Z,0.60
2023-03-26T21:16:54.655Z,0.53
2023-03-26T21:19:23.428Z,0.70
2023-03-26T21:22:08.305Z,0.40
2023-03-26T21:24:51.344Z,0.70
2023-03-26T21:27:27.092Z,0.67
2023-03-26T21:29:58.056Z,0.60
2023-03-26T21:32:26.704Z,0.60
2023-03-26T21:34:59.361Z,0.60
2023-03-26T21:37:28.527Z,0.80
2023-03-26T21:39:57.144Z,0.57
2023-03-26T21:42:26.945Z,0.50
2023-03-26T21:44:57.135Z,0.60
2023-03-26T21:47:25.749Z,0.90
2023-03-26T21:49:54.678Z,0.57
2023-03-26T21:52:23.896Z,0.47
2023-03-26T21:54:52.714Z,0.50
2023-03-26T21:57:40.509Z,0.50
2023-03-26T22:00:15.500Z,0.60
2023-03-26T22:03:02.553Z,0.63
2023-03-26T22:05:38.235Z,0.60
2023-03-26T22:08:08.092Z,0.50
2023-03-26T22:10:37.101Z,0.70
2023-03-26T22:13:05.108Z,0.47
2023-03-26T22:15:35.143Z,0.60
2023-03-26T22:18:03.957Z,0.63
2023-03-26T22:20:32.078Z,0.60
2023-03-26T22:23:00.972Z,0.50
2023-03-26T22:25:28.992Z,0.80
2023-03-26T22:27:57.522Z,0.60
2023-03-26T22:30:25.666Z,0.50
2023-03-26T22:32:55.657Z,0.50
2023-03-26T22:35:23.683Z,0.60
2023-03-26T22:37:51.848Z,0.60
2023-03-26T22:40:20.519Z,0.73
2023-03-26T22:42:48.488Z,0.80
2023-03-26T22:45:17.182Z,0.90
2023-03-26T22:47:45.435Z,0.97
2023-03-26T22:50:14.770Z,1.00
2023-03-26T22:52:42.760Z,1.10
2023-03-26T22:55:11.762Z,1.60
2023-03-26T22:57:41.282Z,1.57
2023-03-26T23:00:14.744Z,1.40
2023-03-26T23:02:44.734Z,1.80
2023-03-26T23:05:17.366Z,1.47
2023-03-26T23:07:46.143Z,1.80
2023-03-26T23:10:14.481Z,2.00
2023-03-26T23:12:42.554Z,1.90
2023-03-26T23:15:11.426Z,1.87
2023-03-26T23:17:39.846Z,2.30
2023-03-26T23:20:14.581Z,1.90
2023-03-26T23:22:44.707Z,1.70
2023-03-26T23:25:13.068Z,1.60
2023-03-26T23:27:41.367Z,1.90
2023-03-26T23:30:11.819Z,2.20
2023-03-26T23:32:41.029Z,2.00
2023-03-26T23:35:09.498Z,1.73
2023-03-26T23:37:38.811Z,1.80
2023-03-26T23:40:10.812Z,2.17
2023-03-26T23:42:39.074Z,1.53
2023-03-26T23:45:08.421Z,1.40
2023-03-26T23:47:37.361Z,2.20
2023-03-26T23:50:07.809Z,1.83
2023-03-26T23:52:37.480Z,1.90
2023-03-26T23:55:06.110Z,1.50
2023-03-26T23:57:37.030Z,1.90
